createdAt,value
2022-12-12T00:00:11.158Z,97690.00
2022-12-12T00:02:58.732Z,97696.00
2022-12-12T00:05:46.354Z,97698.00
2022-12-12T00:08:33.825Z,97701.00
2022-12-12T00:11:23.714Z,97704.00
2022-12-12T00:14:11.242Z,97700.00
2022-12-12T00:16:58.699Z,97701.00
2022-12-12T00:19:46.134Z,97700.00
2022-12-12T00:22:33.628Z,97702.00
2022-12-12T00:25:21.175Z,97705.00
2022-12-12T00:28:08.705Z,97712.00
2022-12-12T00:30:57.245Z,97713.00
2022-12-12T00:33:48.239Z,97716.00
2022-12-12T00:36:35.710Z,97721.00
2022-12-12T00:39:23.880Z,97721.00
2022-12-12T00:42:11.445Z,97723.00
2022-12-12T00:44:59.067Z,97731.00
2022-12-12T00:47:46.559Z,97728.00
2022-12-12T00:50:35.697Z,97731.00
2022-12-12T00:53:23.699Z,97735.00
2022-12-12T00:56:11.245Z,97727.00
2022-12-12T00:58:59.129Z,97727.00
2022-12-12T01:01:47.294Z,97722.00
2022-12-12T01:04:35.071Z,97727.00
2022-12-12T01:07:22.575Z,97733.00
2022-12-12T01:10:10.610Z,97732.00
2022-12-12T01:12:58.120Z,97729.00
2022-12-12T01:15:45.625Z,97734.00
2022-12-12T01:18:34.034Z,97736.00
2022-12-12T01:21:22.420Z,97731.00
2022-12-12T01:24:09.876Z,97739.00
2022-12-12T01:26:57.350Z,97741.00
2022-12-12T01:29:44.839Z,97742.00
2022-12-12T01:32:32.335Z,97740.00
2022-12-12T01:35:19.934Z,97745.00
2022-12-12T01:38:07.405Z,97739.00
2022-12-12T01:40:55.342Z,97742.00
2022-12-12T01:43:44.180Z,97731.00
2022-12-12T01:46:41.184Z,97735.00
2022-12-12T01:49:29.070Z,97735.00
2022-12-12T01:52:25.123Z,97737.00
2022-12-12T01:55:21.220Z,97735.00
2022-12-12T01:58:09.112Z,97746.00
2022-12-12T02:00:56.734Z,97740.00
2022-12-12T02:03:46.826Z,97743.00
2022-12-12T02:06:35.126Z,97737.00
2022-12-12T02:09:25.821Z,97734.00
2022-12-12T02:12:15.404Z,97738.00
2022-12-12T02:15:03.174Z,97748.00
2022-12-12T02:18:32.100Z,97742.00
2022-12-12T02:21:37.600Z,97735.00
2022-12-12T02:24:40.455Z,97737.00
2022-12-12T02:28:24.951Z,97735.00
2022-12-12T02:31:43.521Z,97731.00
2022-12-12T02:35:31.316Z,97740.00
2022-12-12T02:38:40.451Z,97737.00
2022-12-12T02:41:43.935Z,97731.00
2022-12-12T02:44:49.183Z,97735.00
2022-12-12T02:48:05.401Z,97745.00
2022-12-12T02:50:58.227Z,97740.00
2022-12-12T02:53:45.765Z,97750.00
2022-12-12T02:56:49.824Z,97750.00
2022-12-12T02:59:42.496Z,97744.00
2022-12-12T03:02:35.959Z,97750.00
2022-12-12T03:05:51.056Z,97753.00
2022-12-12T03:09:07.685Z,97747.00
2022-12-12T03:12:14.795Z,97745.00
2022-12-12T03:15:18.440Z,97757.00
2022-12-12T03:18:20.214Z,97751.00
2022-12-12T03:21:52.824Z,97757.00
2022-12-12T03:25:20.350Z,97748.00
2022-12-12T03:28:34.919Z,97762.00
2022-12-12T03:31:34.945Z,97756.00
2022-12-12T03:34:30.577Z,97748.00
2022-12-12T03:37:35.583Z,97744.00
2022-12-12T03:40:32.430Z,97742.00
2022-12-12T03:43:50.140Z,97744.00
2022-12-12T03:46:51.320Z,97747.00
2022-12-12T03:50:17.116Z,97743.00
2022-12-12T03:53:17.309Z,97750.00
2022-12-12T03:56:15.335Z,97747.00
2022-12-12T03:59:02.760Z,97749.00
2022-12-12T04:02:08.537Z,97747.00
2022-12-12T04:05:03.790Z,97756.00
2022-12-12T04:08:10.222Z,97761.00
2022-12-12T04:11:33.160Z,97765.00
2022-12-12T04:14:46.895Z,97761.00
2022-12-12T04:17:59.304Z,97769.00
2022-12-12T04:21:20.430Z,97761.00
2022-12-12T04:24:20.719Z,97762.00
2022-12-12T04:27:28.109Z,97766.00
2022-12-12T04:30:17.280Z,97762.00
2022-12-12T04:33:18.565Z,97765.00
2022-12-12T04:36:11.807Z,97767.00
2022-12-12T04:39:02.645Z,97776.00
2022-12-12T04:41:54.201Z,97771.00
2022-12-12T04:44:45.072Z,97777.00
2022-12-12T04:47:35.470Z,97755.00
2022-12-12T04:50:28.193Z,97767.00
2022-12-12T04:53:20.922Z,97765.00
2022-12-12T04:56:14.040Z,97765.00
2022-12-12T04:59:03.621Z,97781.00
2022-12-12T05:02:23.505Z,97778.00
2022-12-12T05:05:26.735Z,97774.00
2022-12-12T05:08:32.500Z,97787.00
2022-12-12T05:11:22.365Z,97785.00
2022-12-12T05:14:11.499Z,97784.00
2022-12-12T05:17:08.774Z,97785.00
2022-12-12T05:19:57.370Z,97788.00
2022-12-12T05:22:44.926Z,97781.00
2022-12-12T05:25:33.194Z,97785.00
2022-12-12T05:28:20.754Z,97783.00
2022-12-12T05:31:08.628Z,97776.00
2022-12-12T05:33:56.229Z,97784.00
2022-12-12T05:36:43.986Z,97783.00
2022-12-12T05:39:31.540Z,97791.00
2022-12-12T05:42:19.095Z,97783.00
2022-12-12T05:45:09.236Z,97790.00
2022-12-12T05:47:58.167Z,97779.00
2022-12-12T05:50:45.819Z,97790.00
2022-12-12T05:53:39.124Z,97784.00
2022-12-12T05:56:29.942Z,97790.00
2022-12-12T05:59:17.510Z,97788.00
2022-12-12T06:02:05.145Z,97789.00
2022-12-12T06:04:52.689Z,97791.00
2022-12-12T06:07:40.243Z,97798.00
2022-12-12T06:10:27.876Z,97804.00
2022-12-12T06:13:15.375Z,97809.00
2022-12-12T06:16:12.890Z,97814.00
2022-12-12T06:19:00.531Z,97821.00
2022-12-12T06:21:48.389Z,97828.00
2022-12-12T06:24:36.002Z,97826.00
2022-12-12T06:27:23.569Z,97823.00
2022-12-12T06:30:11.809Z,97826.00
2022-12-12T06:32:59.342Z,97830.00
2022-12-12T06:36:01.188Z,97827.00
2022-12-12T06:38:48.721Z,97837.00
2022-12-12T06:41:36.310Z,97834.00
2022-12-12T06:44:23.894Z,97828.00
2022-12-12T06:47:11.489Z,97831.00
2022-12-12T06:49:59.082Z,97839.00
2022-12-12T06:52:46.683Z,97840.00
2022-12-12T06:55:34.214Z,97838.00
2022-12-12T06:58:22.381Z,97840.00
2022-12-12T07:01:13.907Z,97854.00
2022-12-12T07:04:01.569Z,97853.00
2022-12-12T07:06:49.147Z,97849.00
2022-12-12T07:09:36.815Z,97860.00
2022-12-12T07:12:24.359Z,97857.00
2022-12-12T07:15:13.401Z,97861.00
2022-12-12T07:18:01.116Z,97866.00
2022-12-12T07:20:48.734Z,97868.00
2022-12-12T07:23:37.410Z,97876.00
2022-12-12T07:26:25.853Z,97876.00
2022-12-12T07:29:13.339Z,97878.00
2022-12-12T07:32:00.917Z,97880.00
2022-12-12T07:34:48.471Z,97875.00
2022-12-12T07:37:36.441Z,97893.00
2022-12-12T07:40:24.447Z,97883.00
2022-12-12T07:43:12.089Z,97888.00
2022-12-12T07:45:59.760Z,97886.00
2022-12-12T07:48:48.164Z,97897.00
2022-12-12T07:51:36.455Z,97900.00
2022-12-12T07:54:24.004Z,97899.00
2022-12-12T07:57:11.597Z,97901.00
2022-12-12T07:59:59.626Z,97905.00
2022-12-12T08:02:47.152Z,97901.00
2022-12-12T08:05:34.651Z,97906.00
2022-12-12T08:08:22.340Z,97914.00
2022-12-12T08:11:13.794Z,97915.00
2022-12-12T08:14:01.559Z,97917.00
2022-12-12T08:16:49.055Z,97925.00
2022-12-12T08:19:36.680Z,97927.00
2022-12-12T08:22:24.211Z,97933.00
2022-12-12T08:25:12.108Z,97925.00
2022-12-12T08:27:59.940Z,97936.00
2022-12-12T08:30:51.625Z,97942.00
2022-12-12T08:33:39.942Z,97945.00
2022-12-12T08:36:31.589Z,97952.00
2022-12-12T08:39:19.593Z,97951.00
2022-12-12T08:42:07.135Z,97960.00
2022-12-12T08:44:54.705Z,97974.00
2022-12-12T08:47:42.402Z,97963.00
2022-12-12T08:50:30.087Z,97967.00
2022-12-12T08:53:17.665Z,97970.00
2022-12-12T08:56:05.766Z,97968.00
2022-12-12T08:58:53.819Z,97966.00
2022-12-12T09:01:41.650Z,97965.00
2022-12-12T09:04:29.446Z,97962.00
2022-12-12T09:07:16.997Z,97961.00
2022-12-12T09:10:05.364Z,97958.00
2022-12-12T09:12:52.980Z,97969.00
2022-12-12T09:15:40.520Z,97968.00
2022-12-12T09:18:28.717Z,97973.00
2022-12-12T09:21:17.579Z,97973.00
2022-12-12T09:24:05.603Z,97985.00
2022-12-12T09:26:53.162Z,97986.00
2022-12-12T09:29:40.685Z,97985.00
2022-12-12T09:32:28.330Z,97982.00
2022-12-12T09:35:16.386Z,97981.00
2022-12-12T09:38:08.247Z,97982.00
2022-12-12T09:41:24.128Z,97989.00
2022-12-12T09:44:18.834Z,97989.00
2022-12-12T09:47:17.021Z,97981.00
2022-12-12T09:50:33.130Z,97983.00
2022-12-12T09:53:23.077Z,97986.00
2022-12-12T09:56:36.232Z,97992.00
2022-12-12T09:59:35.960Z,97995.00
2022-12-12T10:03:15.646Z,97992.00
2022-12-12T10:10:03.454Z,98005.00
2022-12-12T10:12:53.185Z,97994.00
2022-12-12T10:15:53.100Z,97994.00
2022-12-12T10:18:50.531Z,97999.00
2022-12-12T10:21:41.052Z,98000.00
2022-12-12T10:24:37.155Z,98000.00
2022-12-12T10:27:25.315Z,97999.00
2022-12-12T10:30:20.993Z,97995.00
2022-12-12T10:33:45.489Z,98001.00
2022-12-12T10:36:57.277Z,97996.00
2022-12-12T10:40:15.285Z,98000.00
2022-12-12T10:43:44.975Z,97999.00
2022-12-12T10:47:02.279Z,98002.00
2022-12-12T10:50:01.600Z,98003.00
2022-12-12T10:52:49.986Z,97998.00
2022-12-12T10:55:43.992Z,98005.00
2022-12-12T10:59:01.426Z,98005.00
2022-12-12T11:02:10.187Z,98009.00
2022-12-12T11:05:11.434Z,98003.00
2022-12-12T11:08:07.552Z,97998.00
2022-12-12T11:11:08.096Z,97996.00
2022-12-12T11:14:04.530Z,97994.00
2022-12-12T11:16:52.113Z,98002.00
2022-12-12T11:19:39.785Z,98006.00
2022-12-12T11:22:31.594Z,98000.00
2022-12-12T11:25:31.715Z,98009.00
2022-12-12T11:28:24.607Z,97999.00
2022-12-12T11:31:19.036Z,98010.00
2022-12-12T11:34:07.297Z,98007.00
2022-12-12T11:36:59.107Z,98007.00
2022-12-12T11:39:52.053Z,98001.00
2022-12-12T11:42:40.046Z,98013.00
2022-12-12T11:45:27.616Z,98007.00
2022-12-12T11:48:47.048Z,98000.00
2022-12-12T11:51:44.247Z,98001.00
2022-12-12T11:54:32.514Z,98005.00
2022-12-12T11:57:51.630Z,97998.00
2022-12-12T12:01:10.322Z,97994.00
2022-12-12T12:04:27.900Z,97998.00
2022-12-12T12:07:24.186Z,97985.00
2022-12-12T12:10:43.621Z,98003.00
2022-12-12T12:14:21.704Z,97997.00
2022-12-12T12:17:25.581Z,98001.00
2022-12-12T12:20:50.546Z,98002.00
2022-12-12T12:23:56.614Z,97991.00
2022-12-12T12:26:54.293Z,97995.00
2022-12-12T12:30:09.779Z,97996.00
2022-12-12T12:33:15.381Z,97998.00
2022-12-12T12:36:37.662Z,98005.00
2022-12-12T12:40:18.385Z,97999.00
2022-12-12T12:43:24.935Z,98003.00
2022-12-12T12:46:41.806Z,98003.00
2022-12-12T12:49:42.174Z,98000.00
2022-12-12T12:52:40.776Z,97997.00
2022-12-12T12:55:37.536Z,98000.00
2022-12-12T12:58:47.616Z,98000.00
2022-12-12T13:01:58.008Z,97998.00
2022-12-12T13:05:07.740Z,98002.00
2022-12-12T13:08:14.610Z,98008.00
2022-12-12T13:11:18.017Z,98012.00
2022-12-12T13:14:23.312Z,98015.00
2022-12-12T13:17:23.615Z,98018.00
2022-12-12T13:20:22.025Z,98024.00
2022-12-12T13:23:37.935Z,98014.00
2022-12-12T13:26:48.275Z,98038.00
2022-12-12T13:29:55.982Z,98030.00
2022-12-12T13:32:58.939Z,98029.00
2022-12-12T13:35:56.002Z,98029.00
2022-12-12T13:38:56.691Z,98031.00
2022-12-12T13:42:07.974Z,98033.00
2022-12-12T13:44:55.620Z,98035.00
2022-12-12T13:47:50.949Z,98038.00
2022-12-12T13:50:38.540Z,98030.00
2022-12-12T13:53:26.134Z,98023.00
2022-12-12T13:57:05.176Z,98037.00
2022-12-12T13:59:59.152Z,98037.00
2022-12-12T14:03:01.291Z,98057.00
2022-12-12T14:05:53.561Z,98051.00
2022-12-12T14:08:51.559Z,98049.00
2022-12-12T14:11:39.236Z,98062.00
2022-12-12T14:14:26.819Z,98055.00
2022-12-12T14:17:24.262Z,98062.00
2022-12-12T14:20:37.006Z,98068.00
2022-12-12T14:23:27.691Z,98062.00
2022-12-12T14:26:27.627Z,98071.00
2022-12-12T14:29:18.159Z,98066.00
2022-12-12T14:32:11.829Z,98065.00
2022-12-12T14:35:32.549Z,98073.00
2022-12-12T14:39:09.545Z,98062.00
2022-12-12T14:41:58.739Z,98079.00
2022-12-12T14:44:50.638Z,98086.00
2022-12-12T14:47:38.586Z,98083.00
2022-12-12T14:50:26.176Z,98078.00
2022-12-12T14:53:32.215Z,98079.00
2022-12-12T14:56:39.846Z,98081.00
2022-12-12T14:59:37.925Z,98077.00
2022-12-12T15:02:52.022Z,98082.00
2022-12-12T15:05:39.730Z,98077.00
2022-12-12T15:08:27.329Z,98090.00
2022-12-12T15:11:17.085Z,98091.00
2022-12-12T15:14:05.278Z,98087.00
2022-12-12T15:17:08.151Z,98090.00
2022-12-12T15:20:04.213Z,98089.00
2022-12-12T15:23:04.780Z,98093.00
2022-12-12T15:25:56.603Z,98088.00
2022-12-12T15:28:49.151Z,98098.00
2022-12-12T15:31:36.841Z,98104.00
2022-12-12T15:34:41.695Z,98094.00
2022-12-12T15:37:36.563Z,98095.00
2022-12-12T15:40:32.456Z,98100.00
2022-12-12T15:43:25.251Z,98111.00
2022-12-12T15:46:16.135Z,98104.00
2022-12-12T15:49:03.958Z,98101.00
2022-12-12T15:51:51.541Z,98117.00
2022-12-12T15:54:47.860Z,98112.00
2022-12-12T15:57:48.733Z,98114.00
2022-12-12T16:00:40.559Z,98121.00
2022-12-12T16:03:28.115Z,98106.00
2022-12-12T16:06:17.869Z,98119.00
2022-12-12T16:09:11.624Z,98120.00
2022-12-12T16:12:00.050Z,98111.00
2022-12-12T16:14:47.711Z,98117.00
2022-12-12T16:17:36.256Z,98106.00
2022-12-12T16:20:30.165Z,98113.00
2022-12-12T16:23:33.868Z,98121.00
2022-12-12T16:26:21.437Z,98116.00
2022-12-12T16:29:09.041Z,98123.00
2022-12-12T16:31:57.913Z,98119.00
2022-12-12T16:34:45.620Z,98117.00
2022-12-12T16:37:33.685Z,98128.00
2022-12-12T16:40:22.166Z,98120.00
2022-12-12T16:43:13.765Z,98127.00
2022-12-12T16:46:01.486Z,98128.00
2022-12-12T16:48:49.743Z,98125.00
2022-12-12T16:51:41.488Z,98135.00
2022-12-12T16:54:29.001Z,98134.00
2022-12-12T16:57:16.789Z,98129.00
2022-12-12T17:00:05.360Z,98131.00
2022-12-12T17:02:52.911Z,98132.00
2022-12-12T17:05:41.456Z,98138.00
2022-12-12T17:08:29.376Z,98145.00
2022-12-12T17:11:17.111Z,98143.00
2022-12-12T17:14:05.542Z,98145.00
2022-12-12T17:16:56.289Z,98153.00
2022-12-12T17:19:43.901Z,98151.00
2022-12-12T17:22:31.453Z,98151.00
2022-12-12T17:25:21.669Z,98154.00
2022-12-12T17:28:20.616Z,98159.00
2022-12-12T17:31:09.758Z,98160.00
2022-12-12T17:33:57.625Z,98157.00
2022-12-12T17:36:45.393Z,98152.00
2022-12-12T17:39:33.011Z,98159.00
2022-12-12T17:42:20.681Z,98158.00
2022-12-12T17:45:10.422Z,98162.00
2022-12-12T17:47:58.664Z,98165.00
2022-12-12T17:50:55.351Z,98173.00
2022-12-12T17:53:43.504Z,98168.00
2022-12-12T17:56:31.184Z,98176.00
2022-12-12T17:59:18.828Z,98171.00
2022-12-12T18:02:08.592Z,98183.00
2022-12-12T18:04:56.306Z,98183.00
2022-12-12T18:07:43.854Z,98187.00
2022-12-12T18:10:31.477Z,98188.00
2022-12-12T18:13:18.979Z,98194.00
2022-12-12T18:16:12.941Z,98192.00
2022-12-12T18:19:02.010Z,98194.00
2022-12-12T18:22:05.328Z,98189.00
2022-12-12T18:24:52.830Z,98186.00
2022-12-12T18:27:40.542Z,98189.00
2022-12-12T18:30:28.141Z,98184.00
2022-12-12T18:33:15.736Z,98187.00
2022-12-12T18:36:12.205Z,98193.00
2022-12-12T18:39:03.336Z,98193.00
2022-12-12T18:41:52.221Z,98199.00
2022-12-12T18:44:39.734Z,98200.00
2022-12-12T18:47:27.254Z,98202.00
2022-12-12T18:50:14.967Z,98198.00
2022-12-12T18:53:02.884Z,98212.00
2022-12-12T18:55:50.505Z,98210.00
2022-12-12T18:58:38.361Z,98196.00
2022-12-12T19:01:31.292Z,98203.00
2022-12-12T19:04:23.213Z,98205.00
2022-12-12T19:07:12.010Z,98207.00
2022-12-12T19:09:59.520Z,98210.00
2022-12-12T19:12:47.082Z,98213.00
2022-12-12T19:15:35.073Z,98220.00
2022-12-12T19:18:22.712Z,98223.00
2022-12-12T19:21:23.881Z,98218.00
2022-12-12T19:24:14.884Z,98217.00
2022-12-12T19:27:02.445Z,98212.00
2022-12-12T19:29:49.981Z,98209.00
2022-12-12T19:32:37.654Z,98204.00
2022-12-12T19:35:25.338Z,98204.00
2022-12-12T19:38:12.826Z,98204.00
2022-12-12T19:41:10.546Z,98212.00
2022-12-12T19:44:04.623Z,98223.00
2022-12-12T19:46:52.198Z,98220.00
2022-12-12T19:49:40.213Z,98218.00
2022-12-12T19:52:28.399Z,98232.00
2022-12-12T19:55:15.940Z,98233.00
2022-12-12T19:58:04.520Z,98235.00
2022-12-12T20:00:52.090Z,98231.00
2022-12-12T20:03:40.543Z,98234.00
2022-12-12T20:06:29.050Z,98232.00
2022-12-12T20:09:29.049Z,98243.00
2022-12-12T20:12:16.844Z,98239.00
2022-12-12T20:15:04.818Z,98236.00
2022-12-12T20:17:52.479Z,98244.00
2022-12-12T20:20:40.176Z,98238.00
2022-12-12T20:23:29.295Z,98239.00
2022-12-12T20:26:20.819Z,98233.00
2022-12-12T20:29:11.360Z,98235.00
2022-12-12T20:32:00.181Z,98234.00
2022-12-12T20:34:48.506Z,98235.00
2022-12-12T20:37:36.136Z,98241.00
2022-12-12T20:40:23.989Z,98238.00
2022-12-12T20:43:12.021Z,98231.00
2022-12-12T20:46:00.231Z,98232.00
2022-12-12T20:48:49.912Z,98239.00
2022-12-12T20:54:45.495Z,98232.00
2022-12-12T20:57:33.216Z,98233.00
2022-12-12T21:00:21.070Z,98232.00
2022-12-12T21:03:09.082Z,98245.00
2022-12-12T21:05:56.851Z,98243.00
2022-12-12T21:08:48.898Z,98242.00
2022-12-12T21:11:38.727Z,98242.00
2022-12-12T21:14:30.788Z,98236.00
2022-12-12T21:17:18.669Z,98239.00
2022-12-12T21:20:07.240Z,98235.00
2022-12-12T21:22:54.815Z,98247.00
2022-12-12T21:25:42.376Z,98251.00
2022-12-12T21:28:30.095Z,98256.00
2022-12-12T21:31:23.602Z,98249.00
2022-12-12T21:34:12.215Z,98252.00
2022-12-12T21:36:59.733Z,98255.00
2022-12-12T21:39:50.849Z,98250.00
2022-12-12T21:42:38.518Z,98237.00
2022-12-12T21:45:26.147Z,98246.00
2022-12-12T21:48:13.690Z,98252.00
2022-12-12T21:51:02.989Z,98249.00
2022-12-12T21:53:50.542Z,98254.00
2022-12-12T21:56:39.160Z,98248.00
2022-12-12T21:59:27.644Z,98249.00
2022-12-12T22:02:15.186Z,98250.00
2022-12-12T22:05:02.615Z,98253.00
2022-12-12T22:07:50.221Z,98252.00
2022-12-12T22:10:38.422Z,98245.00
2022-12-12T22:13:25.964Z,98255.00
2022-12-12T22:16:19.803Z,98254.00
2022-12-12T22:19:12.228Z,98255.00
2022-12-12T22:21:59.816Z,98248.00
2022-12-12T22:24:47.317Z,98251.00
2022-12-12T22:27:36.043Z,98245.00
2022-12-12T22:30:23.553Z,98247.00
2022-12-12T22:33:11.067Z,98249.00
2022-12-12T22:36:08.120Z,98253.00
2022-12-12T22:38:56.844Z,98253.00
2022-12-12T22:41:44.652Z,98246.00
2022-12-12T22:44:32.117Z,98242.00
2022-12-12T22:47:20.100Z,98237.00
2022-12-12T22:50:08.330Z,98239.00
2022-12-12T22:52:55.861Z,98237.00
2022-12-12T22:55:43.311Z,98240.00
2022-12-12T22:58:33.034Z,98239.00
2022-12-12T23:01:24.436Z,98242.00
2022-12-12T23:04:15.424Z,98229.00
2022-12-12T23:07:03.046Z,98227.00
2022-12-12T23:09:53.734Z,98227.00
2022-12-12T23:12:41.278Z,98231.00
2022-12-12T23:15:28.939Z,98235.00
2022-12-12T23:18:17.189Z,98224.00
2022-12-12T23:21:10.945Z,98215.00
2022-12-12T23:24:01.502Z,98214.00
2022-12-12T23:26:52.140Z,98220.00
2022-12-12T23:29:39.827Z,98221.00
2022-12-12T23:32:27.289Z,98215.00
2022-12-12T23:35:14.985Z,98215.00
2022-12-12T23:38:02.584Z,98213.00
2022-12-12T23:40:50.120Z,98217.00
2022-12-12T23:43:38.166Z,98213.00
2022-12-12T23:46:29.625Z,98213.00
2022-12-12T23:49:23.080Z,98214.00
2022-12-12T23:52:11.535Z,98215.00
2022-12-12T23:54:59.001Z,98210.00
2022-12-12T23:57:46.536Z,98212.00
